Time,TemperatureF,DewpointF,PressureIn,WindDirection,WindDirectionDegrees,WindSpeedMPH,WindSpeedGustMPH,Humidity,HourlyPrecipIn,Conditions,Clouds,dailyrainin,SoftwareType,DateUTC
2013-03-08 00:00:00,34.6,27.8,30.20,WSW,258,2.0,2.0,76,0.00,,,0.28,Wunderground v.1.15,2013-03-08 05:00:00,
2013-03-08 00:05:00,34.6,27.8,30.20,West,280,3.0,3.0,76,0.00,,,0.00,Wunderground v.1.15,2013-03-08 05:05:00,
2013-03-08 00:10:00,34.6,27.8,30.19,West,264,2.0,12.0,76,0.00,,,0.00,Wunderground v.1.15,2013-03-08 05:10:00,
2013-03-08 00:20:00,34.5,27.4,30.19,SW,228,4.0,6.0,75,0.00,,,0.00,Wunderground v.1.15,2013-03-08 05:20:00,
2013-03-08 00:30:00,34.5,27.4,30.19,WNW,291,5.0,5.0,75,0.00,,,0.00,Wunderground v.1.15,2013-03-08 05:30:00,
2013-03-08 00:40:00,34.5,27.1,30.19,WSW,250,6.0,6.0,74,0.00,,,0.00,Wunderground v.1.15,2013-03-08 05:40:00,
2013-03-08 00:45:00,34.4,27.0,30.19,SW,230,6.0,6.0,74,0.00,,,0.00,Wunderground v.1.15,2013-03-08 05:45:00,
2013-03-08 00:55:00,34.4,27.0,30.19,ESE,120,6.0,6.0,74,0.00,,,0.00,Wunderground v.1.15,2013-03-08 05:55:00,
2013-03-08 01:05:00,34.3,27.2,30.19,North,359,4.0,9.0,75,0.00,,,0.00,Wunderground v.1.15,2013-03-08 06:05:00,
2013-03-08 01:10:00,34.2,27.1,30.19,North,349,4.0,5.0,75,0.00,,,0.00,Wunderground v.1.15,2013-03-08 06:10:00,
2013-03-08 01:15:00,34.2,27.1,30.19,NNW,331,5.0,10.0,75,0.00,,,0.00,Wunderground v.1.15,2013-03-08 06:15:00,
2013-03-08 01:25:00,34.1,27.3,30.19,NW,321,4.0,5.0,76,0.00,,,0.00,Wunderground v.1.15,2013-03-08 06:25:00,
2013-03-08 01:35:00,34.0,27.2,30.19,North,349,6.0,9.0,76,0.00,,,0.00,Wunderground v.1.15,2013-03-08 06:35:00,
2013-03-08 01:40:00,34.0,26.9,30.19,West,270,6.0,7.0,75,0.00,,,0.00,Wunderground v.1.15,2013-03-08 06:40:00,
2013-03-08 01:50:00,34.1,27.0,30.19,West,269,5.0,14.0,75,0.00,,,0.00,Wunderground v.1.15,2013-03-08 06:50:00,
2013-03-08 02:00:00,34.0,26.6,30.19,WSW,256,7.0,10.0,74,0.00,,,0.00,Wunderground v.1.15,2013-03-08 07:00:00,
2013-03-08 02:05:00,33.9,26.5,30.19,SSW,195,7.0,10.0,74,0.00,,,0.00,Wunderground v.1.15,2013-03-08 07:05:00,
2013-03-08 02:15:00,33.6,26.2,30.19,NW,320,6.0,7.0,74,0.00,,,0.00,Wunderground v.1.15,2013-03-08 07:15:00,
2013-03-08 02:25:00,33.2,25.5,30.20,ENE,62,8.0,8.0,73,0.00,,,0.00,Wunderground v.1.15,2013-03-08 07:25:00,
2013-03-08 02:35:00,33.0,25.3,30.20,West,273,5.0,10.0,73,0.00,,,0.00,Wunderground v.1.15,2013-03-08 07:35:00,
2013-03-08 02:45:00,33.1,25.4,30.20,North,354,7.0,7.0,73,0.00,,,0.00,Wunderground v.1.15,2013-03-08 07:45:00,
2013-03-08 02:55:00,33.1,25.1,30.20,NNE,12,5.0,6.0,72,0.00,,,0.00,Wunderground v.1.15,2013-03-08 07:55:00,
2013-03-08 03:00:00,33.2,25.1,30.20,SW,228,5.0,5.0,72,0.00,,,0.00,Wunderground v.1.15,2013-03-08 08:00:00,
2013-03-08 03:05:00,33.2,25.1,30.20,West,263,4.0,7.0,72,0.00,,,0.00,Wunderground v.1.15,2013-03-08 08:05:00,
2013-03-08 03:15:00,33.3,25.2,30.19,West,279,3.0,3.0,72,0.00,,,0.00,Wunderground v.1.15,2013-03-08 08:15:00,
2013-03-08 03:25:00,33.3,25.2,30.19,SW,231,5.0,7.0,72,0.00,,,0.00,Wunderground v.1.15,2013-03-08 08:25:00,
2013-03-08 03:30:00,33.2,25.1,30.19,NW,304,5.0,5.0,72,0.00,,,0.00,Wunderground v.1.15,2013-03-08 08:30:00,
2013-03-08 03:40:00,33.2,25.1,30.19,SW,228,4.0,8.0,72,0.00,,,0.00,Wunderground v.1.15,2013-03-08 08:40:00,
2013-03-08 03:50:00,33.2,25.1,30.19,NW,308,7.0,10.0,72,0.00,,,0.00,Wunderground v.1.15,2013-03-08 08:50:00,
2013-03-08 03:55:00,33.2,25.1,30.19,West,268,8.0,10.0,72,0.00,,,0.00,Wunderground v.1.15,2013-03-08 08:55:00,
2013-03-08 04:05:00,33.0,25.0,30.19,West,263,6.0,9.0,72,0.00,,,0.00,Wunderground v.1.15,2013-03-08 09:05:00,
2013-03-08 04:15:00,33.0,24.6,30.20,West,280,4.0,10.0,71,0.00,,,0.00,Wunderground v.1.15,2013-03-08 09:15:00,
2013-03-08 04:25:00,33.1,24.4,30.20,WNW,286,6.0,10.0,70,0.00,,,0.00,Wunderground v.1.15,2013-03-08 09:25:00,
2013-03-08 04:35:00,32.9,24.5,30.20,NNW,338,6.0,6.0,71,0.00,,,0.00,Wunderground v.1.15,2013-03-08 09:35:00,
2013-03-08 04:45:00,32.8,24.4,30.20,WNW,283,5.0,6.0,71,0.00,,,0.00,Wunderground v.1.15,2013-03-08 09:45:00,
2013-03-08 04:55:00,32.6,24.6,30.22,WNW,295,6.0,14.0,72,0.00,,,0.00,Wunderground v.1.15,2013-03-08 09:55:00,
2013-03-08 05:05:00,32.6,24.6,30.22,WNW,291,6.0,6.0,72,0.00,,,0.00,Wunderground v.1.15,2013-03-08 10:05:00,
2013-03-08 05:15:00,32.5,24.8,30.22,WNW,295,3.0,4.0,73,0.00,,,0.00,Wunderground v.1.15,2013-03-08 10:15:00,
2013-03-08 05:20:00,32.5,25.1,30.23,South,170,4.0,5.0,74,0.00,,,0.00,Wunderground v.1.15,2013-03-08 10:20:00,
2013-03-08 05:30:00,32.4,25.4,30.23,SE,130,5.0,5.0,75,0.00,,,0.00,Wunderground v.1.15,2013-03-08 10:30:00,
2013-03-08 05:40:00,32.4,25.4,30.23,West,265,3.0,3.0,75,0.00,,,0.00,Wunderground v.1.15,2013-03-08 10:40:00,
2013-03-08 05:45:00,32.4,25.4,30.23,SSW,212,4.0,6.0,75,0.00,,,0.00,Wunderground v.1.15,2013-03-08 10:45:00,
2013-03-08 05:50:00,32.4,25.7,30.23,WSW,238,5.0,5.0,76,0.00,,,0.00,Wunderground v.1.15,2013-03-08 10:50:00,
2013-03-08 06:00:00,32.3,26.2,30.24,NNW,328,2.0,4.0,78,0.00,,,0.00,Wunderground v.1.15,2013-03-08 11:00:00,
2013-03-08 06:05:00,32.2,25.8,30.24,WSW,247,3.0,9.0,77,0.00,,,0.00,Wunderground v.1.15,2013-03-08 11:05:00,
2013-03-08 06:15:00,32.0,25.6,30.24,SSW,211,3.0,4.0,77,0.00,,,0.00,Wunderground v.1.15,2013-03-08 11:15:00,
2013-03-08 06:25:00,31.8,25.1,30.23,West,273,4.0,4.0,76,0.00,,,0.00,Wunderground v.1.15,2013-03-08 11:25:00,
2013-03-08 06:35:00,31.6,24.9,30.23,WNW,299,7.0,7.0,76,0.00,,,0.00,Wunderground v.1.15,2013-03-08 11:35:00,
2013-03-08 06:45:00,31.5,24.8,30.23,NNW,328,9.0,11.0,76,0.00,,,0.00,Wunderground v.1.15,2013-03-08 11:45:00,
2013-03-08 06:50:00,31.5,24.8,30.24,WNW,290,8.0,10.0,76,0.00,,,0.00,Wunderground v.1.15,2013-03-08 11:50:00,
2013-03-08 07:00:00,31.5,24.8,30.24,WSW,256,7.0,8.0,76,0.00,,,0.00,Wunderground v.1.15,2013-03-08 12:00:00,
2013-03-08 07:05:00,31.6,24.9,30.24,West,268,7.0,8.0,76,0.00,,,0.00,Wunderground v.1.15,2013-03-08 12:05:00,
2013-03-08 07:15:00,31.7,24.7,30.25,WSW,243,8.0,13.0,75,0.00,,,0.00,Wunderground v.1.15,2013-03-08 12:15:00,
2013-03-08 07:25:00,31.8,24.8,30.25,SW,214,7.0,9.0,75,0.00,,,0.00,Wunderground v.1.15,2013-03-08 12:25:00,
2013-03-08 07:30:00,31.8,24.8,30.25,WSW,250,4.0,4.0,75,0.00,,,0.00,Wunderground v.1.15,2013-03-08 12:30:00,
2013-03-08 07:40:00,31.9,25.2,30.25,SSW,195,6.0,6.0,76,0.00,,,0.00,Wunderground v.1.15,2013-03-08 12:40:00,
2013-03-08 07:45:00,31.9,25.2,30.26,ESE,113,6.0,6.0,76,0.00,,,0.00,Wunderground v.1.15,2013-03-08 12:45:00,
2013-03-08 07:55:00,32.0,25.3,30.26,ESE,105,5.0,12.0,76,0.00,,,0.00,Wunderground v.1.15,2013-03-08 12:55:00,
2013-03-08 08:05:00,32.3,25.6,30.27,WSW,251,5.0,5.0,76,0.00,,,0.00,Wunderground v.1.15,2013-03-08 13:05:00,
2013-03-08 08:15:00,32.4,25.7,30.26,SW,226,4.0,16.0,76,0.00,,,0.00,Wunderground v.1.15,2013-03-08 13:15:00,
2013-03-08 08:25:00,32.5,25.8,30.27,SSW,192,4.0,5.0,76,0.00,,,0.00,Wunderground v.1.15,2013-03-08 13:25:00,
2013-03-08 08:35:00,32.9,25.5,30.28,SSE,168,2.0,2.0,74,0.00,,,0.00,Wunderground v.1.15,2013-03-08 13:35:00,
2013-03-08 08:45:00,33.2,26.1,30.27,SSW,206,3.0,6.0,75,0.00,,,0.00,Wunderground v.1.15,2013-03-08 13:45:00,
2013-03-08 08:55:00,33.7,26.3,30.27,ENE,74,4.0,5.0,74,0.00,,,0.00,Wunderground v.1.15,2013-03-08 13:55:00,
2013-03-08 09:05:00,33.8,26.1,30.28,West,277,3.0,3.0,73,0.00,,,0.00,Wunderground v.1.15,2013-03-08 14:05:00,
2013-03-08 09:15:00,33.7,26.3,30.28,SSE,158,3.0,3.0,74,0.00,,,0.00,Wunderground v.1.15,2013-03-08 14:15:00,
2013-03-08 09:25:00,33.9,25.8,30.28,NE,54,5.0,5.0,72,0.00,,,0.00,Wunderground v.1.15,2013-03-08 14:25:00,
2013-03-08 09:35:00,34.1,26.0,30.28,NNE,31,4.0,5.0,72,0.00,,,0.00,Wunderground v.1.15,2013-03-08 14:35:00,
2013-03-08 09:40:00,34.3,26.5,30.28,SW,235,4.0,5.0,73,0.00,,,0.00,Wunderground v.1.15,2013-03-08 14:40:00,
2013-03-08 09:50:00,34.4,25.6,30.28,ENE,64,4.0,4.0,70,0.00,,,0.00,Wunderground v.1.15,2013-03-08 14:50:00,
2013-03-08 10:00:00,34.5,25.7,30.29,NW,320,5.0,5.0,70,0.00,,,0.00,Wunderground v.1.15,2013-03-08 15:00:00,
2013-03-08 10:05:00,34.6,25.8,30.29,SSE,154,5.0,5.0,70,0.00,,,0.00,Wunderground v.1.15,2013-03-08 15:05:00,
2013-03-08 10:15:00,34.9,25.8,30.29,WSW,243,3.0,9.0,69,0.00,,,0.00,Wunderground v.1.15,2013-03-08 15:15:00,
2013-03-08 10:25:00,35.0,25.5,30.29,WSW,237,4.0,4.0,68,0.00,,,0.00,Wunderground v.1.15,2013-03-08 15:25:00,
2013-03-08 10:35:00,35.2,25.7,30.30,SW,235,5.0,5.0,68,0.00,,,0.00,Wunderground v.1.15,2013-03-08 15:35:00,
2013-03-08 10:45:00,35.3,26.1,30.29,South,187,3.0,8.0,69,0.00,,,0.00,Wunderground v.1.15,2013-03-08 15:45:00,
2013-03-08 10:55:00,35.4,25.9,30.29,NNE,21,5.0,5.0,68,0.00,,,0.00,Wunderground v.1.15,2013-03-08 15:55:00,
2013-03-08 11:10:00,35.6,26.4,30.28,WNW,289,5.0,5.0,69,0.00,,,0.00,Wunderground v.1.15,2013-03-08 16:10:00,
2013-03-08 11:20:00,35.7,26.2,30.28,SE,126,6.0,6.0,68,0.00,,,0.00,Wunderground v.1.15,2013-03-08 16:20:00,
2013-03-08 11:30:00,36.5,26.9,30.29,NNE,30,5.0,10.0,68,0.00,,,0.00,Wunderground v.1.15,2013-03-08 16:30:00,
2013-03-08 11:40:00,37.2,26.9,30.29,SW,223,5.0,5.0,66,0.00,,,0.00,Wunderground v.1.15,2013-03-08 16:40:00,
2013-03-08 11:50:00,37.0,26.3,30.28,East,91,8.0,8.0,65,0.00,,,0.00,Wunderground v.1.15,2013-03-08 16:50:00,
2013-03-08 11:55:00,36.9,27.0,30.28,SE,129,6.0,8.0,67,0.00,,,0.00,Wunderground v.1.15,2013-03-08 16:55:00,
2013-03-08 12:05:00,37.1,26.8,30.28,SSW,206,5.0,8.0,66,0.00,,,0.01,Wunderground v.1.15,2013-03-08 17:05:00,
2013-03-08 12:15:00,37.5,26.8,30.28,North,4,5.0,5.0,65,0.00,,,0.01,Wunderground v.1.15,2013-03-08 17:15:00,
2013-03-08 12:25:00,37.7,27.0,30.28,ENE,59,6.0,6.0,65,0.00,,,0.01,Wunderground v.1.15,2013-03-08 17:25:00,
2013-03-08 12:35:00,39.0,27.1,30.27,North,4,5.0,6.0,62,0.00,,,0.01,Wunderground v.1.15,2013-03-08 17:35:00,
2013-03-08 12:45:00,40.1,28.5,30.28,NW,305,5.0,7.0,63,0.00,,,0.01,Wunderground v.1.15,2013-03-08 17:45:00,
2013-03-08 12:50:00,39.5,27.5,30.27,South,187,4.0,4.0,62,0.00,,,0.01,Wunderground v.1.15,2013-03-08 17:50:00,
2013-03-08 13:00:00,38.5,27.0,30.27,ESE,102,5.0,7.0,63,0.00,,,0.01,Wunderground v.1.15,2013-03-08 18:00:00,
2013-03-08 13:05:00,38.1,27.0,30.27,West,270,5.0,7.0,64,0.00,,,0.01,Wunderground v.1.15,2013-03-08 18:05:00,
2013-03-08 13:15:00,38.1,27.7,30.27,North,354,7.0,8.0,66,0.00,,,0.01,Wunderground v.1.15,2013-03-08 18:15:00,
2013-03-08 13:20:00,38.9,28.1,30.27,NW,312,7.0,7.0,65,0.00,,,0.01,Wunderground v.1.15,2013-03-08 18:20:00,
2013-03-08 13:30:00,39.8,28.6,30.26,NNE,18,6.0,12.0,64,0.00,,,0.01,Wunderground v.1.15,2013-03-08 18:30:00,
2013-03-08 13:40:00,40.4,28.4,30.25,SW,226,6.0,10.0,62,0.00,,,0.01,Wunderground v.1.15,2013-03-08 18:40:00,
2013-03-08 13:45:00,40.0,28.0,30.24,WSW,239,8.0,10.0,62,0.00,,,0.01,Wunderground v.1.15,2013-03-08 18:45:00,
2013-03-08 13:55:00,39.9,28.3,30.25,NW,321,8.0,12.0,63,0.00,,,0.01,Wunderground v.1.15,2013-03-08 18:55:00,
2013-03-08 14:05:00,39.7,28.1,30.25,ESE,118,8.0,9.0,63,0.00,,,0.01,Wunderground v.1.15,2013-03-08 19:05:00,
2013-03-08 14:15:00,40.1,28.5,30.25,West,276,8.0,13.0,63,0.00,,,0.01,Wunderground v.1.15,2013-03-08 19:15:00,
2013-03-08 14:25:00,40.2,28.6,30.25,South,179,7.0,15.0,63,0.00,,,0.01,Wunderground v.1.15,2013-03-08 19:25:00,
2013-03-08 14:35:00,40.4,28.8,30.26,West,259,7.0,13.0,63,0.00,,,0.01,Wunderground v.1.15,2013-03-08 19:35:00,
2013-03-08 14:40:00,40.5,29.3,30.25,North,4,8.0,8.0,64,0.00,,,0.01,Wunderground v.1.15,2013-03-08 19:40:00,
2013-03-08 14:50:00,40.2,29.0,30.25,North,354,8.0,17.0,64,0.00,,,0.01,Wunderground v.1.15,2013-03-08 19:50:00,
2013-03-08 15:00:00,39.8,28.6,30.25,SW,216,9.0,9.0,64,0.00,,,0.01,Wunderground v.1.15,2013-03-08 20:00:00,
2013-03-08 15:05:00,39.8,29.0,30.25,West,270,10.0,10.0,65,0.00,,,0.01,Wunderground v.1.15,2013-03-08 20:05:00,
2013-03-08 15:15:00,39.9,28.7,30.25,SW,233,10.0,10.0,64,0.00,,,0.01,Wunderground v.1.15,2013-03-08 20:15:00,
2013-03-08 15:25:00,40.2,28.6,30.26,SW,225,8.0,16.0,63,0.00,,,0.01,Wunderground v.1.15,2013-03-08 20:25:00,
2013-03-08 15:30:00,40.2,28.6,30.26,NNW,342,9.0,9.0,63,0.00,,,0.01,Wunderground v.1.15,2013-03-08 20:30:00,
2013-03-08 15:40:00,40.5,28.9,30.26,NNW,334,10.0,10.0,63,0.00,,,0.01,Wunderground v.1.15,2013-03-08 20:40:00,
2013-03-08 15:50:00,40.2,28.6,30.26,WNW,286,8.0,21.0,63,0.00,,,0.01,Wunderground v.1.15,2013-03-08 20:50:00,
2013-03-08 16:00:00,40.3,29.1,30.26,West,272,10.0,19.0,64,0.00,,,0.01,Wunderground v.1.15,2013-03-08 21:00:00,
2013-03-08 16:05:00,40.5,28.9,30.26,NW,305,8.0,19.0,63,0.00,,,0.01,Wunderground v.1.15,2013-03-08 21:05:00,
2013-03-08 16:15:00,39.8,28.2,30.27,West,267,10.0,16.0,63,0.00,,,0.01,Wunderground v.1.15,2013-03-08 21:15:00,
2013-03-08 16:20:00,39.9,28.7,30.27,NNW,341,10.0,13.0,64,0.00,,,0.01,Wunderground v.1.15,2013-03-08 21:20:00,
2013-03-08 16:30:00,39.8,28.6,30.28,NW,308,7.0,23.0,64,0.00,,,0.01,Wunderground v.1.15,2013-03-08 21:30:00,
2013-03-08 16:40:00,39.1,27.9,30.29,SW,235,8.0,8.0,64,0.00,,,0.01,Wunderground v.1.15,2013-03-08 21:40:00,
2013-03-08 16:50:00,38.3,27.2,30.29,ESE,105,8.0,8.0,64,0.00,,,0.01,Wunderground v.1.15,2013-03-08 21:50:00,
2013-03-08 17:00:00,37.4,27.1,30.29,NNW,332,7.0,10.0,66,0.00,,,0.01,Wunderground v.1.15,2013-03-08 22:00:00,
2013-03-08 17:05:00,36.9,27.0,30.29,WNW,297,8.0,10.0,67,0.00,,,0.01,Wunderground v.1.15,2013-03-08 22:05:00,
2013-03-08 17:15:00,36.4,27.2,30.29,West,263,7.0,9.0,69,0.00,,,0.01,Wunderground v.1.15,2013-03-08 22:15:00,
2013-03-08 17:20:00,36.2,27.0,30.29,West,264,7.0,9.0,69,0.00,,,0.01,Wunderground v.1.15,2013-03-08 22:20:00,
2013-03-08 17:30:00,36.0,26.8,30.30,West,267,10.0,11.0,69,0.00,,,0.01,Wunderground v.1.15,2013-03-08 22:30:00,
2013-03-08 17:40:00,35.9,26.7,30.30,NW,314,12.0,12.0,69,0.00,,,0.01,Wunderground v.1.15,2013-03-08 22:40:00,
2013-03-08 17:50:00,35.8,26.6,30.29,SW,216,10.0,10.0,69,0.00,,,0.01,Wunderground v.1.15,2013-03-08 22:50:00,
2013-03-08 18:00:00,35.7,26.5,30.30,West,276,10.0,11.0,69,0.00,,,0.01,Wunderground v.1.15,2013-03-08 23:00:00,
2013-03-08 18:05:00,35.7,26.5,30.29,WNW,303,11.0,11.0,69,0.00,,,0.01,Wunderground v.1.15,2013-03-08 23:05:00,
2013-03-08 18:15:00,35.5,26.3,30.30,WSW,249,11.0,11.0,69,0.00,,,0.01,Wunderground v.1.15,2013-03-08 23:15:00,
2013-03-08 18:25:00,35.5,26.3,30.30,WSW,241,12.0,12.0,69,0.00,,,0.01,Wunderground v.1.15,2013-03-08 23:25:00,
2013-03-08 18:35:00,35.5,26.3,30.30,WNW,298,12.0,13.0,69,0.00,,,0.01,Wunderground v.1.15,2013-03-08 23:35:00,
2013-03-08 18:40:00,35.5,26.3,30.31,NW,313,13.0,13.0,69,0.00,,,0.01,Wunderground v.1.15,2013-03-08 23:40:00,
2013-03-08 18:50:00,35.4,26.2,30.31,SW,226,13.0,13.0,69,0.00,,,0.01,Wunderground v.1.15,2013-03-08 23:50:00,
2013-03-08 19:00:00,35.3,26.5,30.31,NW,305,12.0,14.0,70,0.00,,,0.01,Wunderground v.1.15,2013-03-09 00:00:00,
2013-03-08 19:10:00,35.3,26.5,30.31,WNW,293,12.0,12.0,70,0.00,,,0.01,Wunderground v.1.15,2013-03-09 00:10:00,
2013-03-08 19:20:00,35.3,26.1,30.32,West,274,13.0,13.0,69,0.00,,,0.01,Wunderground v.1.15,2013-03-09 00:20:00,
2013-03-08 19:25:00,35.3,26.1,30.32,WNW,293,11.0,13.0,69,0.00,,,0.01,Wunderground v.1.15,2013-03-09 00:25:00,
2013-03-08 19:30:00,35.2,26.0,30.32,NNW,330,10.0,10.0,69,0.00,,,0.01,Wunderground v.1.15,2013-03-09 00:30:00,
2013-03-08 19:40:00,35.2,26.0,30.33,WSW,246,11.0,22.0,69,0.00,,,0.01,Wunderground v.1.15,2013-03-09 00:40:00,
2013-03-08 19:45:00,35.1,25.9,30.33,WNW,289,12.0,22.0,69,0.00,,,0.01,Wunderground v.1.15,2013-03-09 00:45:00,
2013-03-08 19:55:00,35.0,26.2,30.33,WSW,253,9.0,11.0,70,0.00,,,0.01,Wunderground v.1.15,2013-03-09 00:55:00,
2013-03-08 20:00:00,35.0,26.2,30.34,WNW,293,7.0,9.0,70,0.00,,,0.01,Wunderground v.1.15,2013-03-09 01:00:00,
2013-03-08 20:05:00,35.0,26.2,30.33,West,268,9.0,9.0,70,0.00,,,0.01,Wunderground v.1.15,2013-03-09 01:05:00,
2013-03-08 20:15:00,35.0,26.2,30.34,West,266,10.0,13.0,70,0.00,,,0.01,Wunderground v.1.15,2013-03-09 01:15:00,
2013-03-08 20:25:00,34.9,26.1,30.34,SW,235,10.0,11.0,70,0.00,,,0.01,Wunderground v.1.15,2013-03-09 01:25:00,
2013-03-08 20:35:00,34.8,26.0,30.35,West,262,7.0,14.0,70,0.00,,,0.01,Wunderground v.1.15,2013-03-09 01:35:00,
2013-03-08 20:45:00,34.7,25.9,30.34,WSW,237,8.0,8.0,70,0.00,,,0.01,Wunderground v.1.15,2013-03-09 01:45:00,
2013-03-08 20:55:00,34.6,26.2,30.34,West,281,9.0,13.0,71,0.00,,,0.01,Wunderground v.1.15,2013-03-09 01:55:00,
2013-03-08 21:05:00,34.5,26.1,30.34,North,10,9.0,20.0,71,0.00,,,0.01,Wunderground v.1.15,2013-03-09 02:05:00,
2013-03-08 21:15:00,34.5,26.1,30.34,SSW,202,9.0,10.0,71,0.00,,,0.01,Wunderground v.1.15,2013-03-09 02:15:00,
2013-03-08 21:25:00,34.4,26.0,30.34,SW,233,8.0,9.0,71,0.00,,,0.01,Wunderground v.1.15,2013-03-09 02:25:00,
2013-03-08 21:30:00,34.4,26.0,30.34,North,350,9.0,9.0,71,0.00,,,0.01,Wunderground v.1.15,2013-03-09 02:30:00,
2013-03-08 21:40:00,34.4,26.0,30.34,WSW,253,7.0,8.0,71,0.00,,,0.01,Wunderground v.1.15,2013-03-09 02:40:00,
2013-03-08 21:50:00,34.5,26.1,30.34,WNW,291,9.0,9.0,71,0.00,,,0.01,Wunderground v.1.15,2013-03-09 02:50:00,
2013-03-08 22:00:00,34.4,26.0,30.33,NW,309,8.0,13.0,71,0.00,,,0.01,Wunderground v.1.15,2013-03-09 03:00:00,
2013-03-08 22:05:00,34.4,26.0,30.34,WSW,237,8.0,13.0,71,0.00,,,0.01,Wunderground v.1.15,2013-03-09 03:05:00,
2013-03-08 22:15:00,34.4,26.0,30.34,West,270,7.0,7.0,71,0.00,,,0.01,Wunderground v.1.15,2013-03-09 03:15:00,
2013-03-08 22:25:00,34.3,26.2,30.34,SW,228,7.0,8.0,72,0.00,,,0.01,Wunderground v.1.15,2013-03-09 03:25:00,
2013-03-08 22:35:00,34.0,25.9,30.33,SW,220,7.0,7.0,72,0.00,,,0.01,Wunderground v.1.15,2013-03-09 03:35:00,
2013-03-08 22:45:00,33.9,26.2,30.33,WSW,258,5.0,9.0,73,0.00,,,0.01,Wunderground v.1.15,2013-03-09 03:45:00,
2013-03-08 22:50:00,33.8,26.1,30.33,NNW,332,4.0,4.0,73,0.00,,,0.01,Wunderground v.1.15,2013-03-09 03:50:00,
2013-03-08 23:00:00,33.7,26.0,30.33,NNW,328,4.0,4.0,73,0.00,,,0.01,Wunderground v.1.15,2013-03-09 04:00:00,
2013-03-08 23:05:00,33.8,26.1,30.34,NW,314,5.0,5.0,73,0.00,,,0.01,Wunderground v.1.15,2013-03-09 04:05:00,
2013-03-08 23:15:00,33.7,26.0,30.34,West,263,3.0,4.0,73,0.00,,,0.01,Wunderground v.1.15,2013-03-09 04:15:00,
2013-03-08 23:20:00,33.6,25.9,30.34,WNW,283,5.0,11.0,73,0.00,,,0.01,Wunderground v.1.15,2013-03-09 04:20:00,
2013-03-08 23:30:00,33.6,25.9,30.34,West,267,8.0,11.0,73,0.00,,,0.01,Wunderground v.1.15,2013-03-09 04:30:00,
2013-03-08 23:40:00,33.7,25.6,30.34,WSW,247,8.0,8.0,72,0.00,,,0.01,Wunderground v.1.15,2013-03-09 04:40:00,
2013-03-08 23:50:00,33.7,26.0,30.33,West,280,7.0,7.0,73,0.00,,,0.01,Wunderground v.1.15,2013-03-09 04:50:00,